createdAt,value
2018-08-04T00:00:28.723Z,11.55
2018-08-04T00:02:57.400Z,11.55
2018-08-04T00:05:25.602Z,11.30
2018-08-04T00:07:54.043Z,10.85
2018-08-04T00:10:22.256Z,11.85
2018-08-04T00:12:52.030Z,11.53
2018-08-04T00:15:20.867Z,11.20
2018-08-04T00:17:49.542Z,11.38
2018-08-04T00:20:17.945Z,11.70
2018-08-04T00:22:47.134Z,11.00
2018-08-04T00:25:15.362Z,11.12
2018-08-04T00:27:44.018Z,11.50
2018-08-04T00:30:13.435Z,11.80
2018-08-04T00:32:42.846Z,11.78
2018-08-04T00:35:11.576Z,11.83
2018-08-04T00:37:39.815Z,11.35
2018-08-04T00:40:10.224Z,11.78
2018-08-04T00:42:39.008Z,12.28
2018-08-04T00:45:07.259Z,11.65
2018-08-04T00:47:35.487Z,11.95
2018-08-04T00:50:04.095Z,12.13
2018-08-04T00:52:33.260Z,12.03
2018-08-04T00:55:01.486Z,12.65
2018-08-04T00:57:29.816Z,11.83
2018-08-04T00:59:58.028Z,12.45
2018-08-04T01:02:26.230Z,12.20
2018-08-04T01:04:54.783Z,11.70
2018-08-04T01:07:23.034Z,12.65
2018-08-04T01:09:51.244Z,12.13
2018-08-04T01:12:19.446Z,12.63
2018-08-04T01:14:48.184Z,13.20
2018-08-04T01:17:16.859Z,12.07
2018-08-04T01:19:45.634Z,12.55
2018-08-04T01:22:14.086Z,13.22
2018-08-04T01:24:42.295Z,12.53
2018-08-04T01:27:10.492Z,12.82
2018-08-04T01:29:38.688Z,12.95
2018-08-04T01:32:06.933Z,13.05
2018-08-04T01:34:35.562Z,12.85
2018-08-04T01:37:03.827Z,13.03
2018-08-04T01:39:32.193Z,13.20
2018-08-04T01:42:00.427Z,12.98
2018-08-04T01:44:28.672Z,13.75
2018-08-04T01:46:56.884Z,12.90
2018-08-04T01:49:25.070Z,13.30
2018-08-04T01:51:53.360Z,12.90
2018-08-04T01:54:22.058Z,12.30
2018-08-04T01:56:50.267Z,12.13
2018-08-04T01:59:18.471Z,12.40
2018-08-04T02:01:46.850Z,14.38
2018-08-04T02:04:15.254Z,13.50
2018-08-04T02:06:43.771Z,12.28
2018-08-04T02:09:12.244Z,12.55
2018-08-04T02:11:40.426Z,13.20
2018-08-04T02:14:09.007Z,13.13
2018-08-04T02:16:37.680Z,13.28
2018-08-04T02:19:06.655Z,13.50
2018-08-04T02:21:34.870Z,13.78
2018-08-04T02:24:03.078Z,12.60
2018-08-04T02:26:31.295Z,13.50
2018-08-04T02:28:59.494Z,14.45
2018-08-04T02:31:27.760Z,14.68
2018-08-04T02:33:56.599Z,13.80
2018-08-04T02:36:25.087Z,14.45
2018-08-04T02:38:53.268Z,13.88
2018-08-04T02:41:21.482Z,13.22
2018-08-04T02:43:49.683Z,14.18
2018-08-04T02:46:17.902Z,12.93
2018-08-04T02:48:46.184Z,13.90
2018-08-04T02:51:14.387Z,13.62
2018-08-04T02:53:43.254Z,13.70
2018-08-04T02:56:11.471Z,13.78
2018-08-04T02:58:40.050Z,14.03
2018-08-04T03:01:08.272Z,13.83
2018-08-04T03:03:36.476Z,13.83
2018-08-04T03:06:05.019Z,14.03
2018-08-04T03:08:33.290Z,13.80
2018-08-04T03:11:01.545Z,14.53
2018-08-04T03:13:33.470Z,13.85
2018-08-04T03:16:02.138Z,13.88
2018-08-04T03:18:30.802Z,14.83
2018-08-04T03:20:59.000Z,14.75
2018-08-04T03:23:27.199Z,13.32
2018-08-04T03:25:55.835Z,14.28
2018-08-04T03:28:24.040Z,13.83
2018-08-04T03:30:52.259Z,15.05
2018-08-04T03:33:21.016Z,13.40
2018-08-04T03:35:49.222Z,14.00
2018-08-04T03:38:17.435Z,13.98
2018-08-04T03:40:45.803Z,14.18
2018-08-04T03:43:13.999Z,14.55
2018-08-04T03:45:42.366Z,14.30
2018-08-04T03:48:10.579Z,14.38
2018-08-04T03:50:38.797Z,14.70
2018-08-04T03:53:07.547Z,14.43
2018-08-04T03:55:35.759Z,14.33
2018-08-04T03:58:03.990Z,14.13
2018-08-04T04:00:32.230Z,14.33
2018-08-04T04:03:00.448Z,14.07
2018-08-04T04:05:28.714Z,13.35
2018-08-04T04:07:56.917Z,13.65
2018-08-04T04:10:25.154Z,13.50
2018-08-04T04:12:57.599Z,14.23
2018-08-04T04:15:26.214Z,13.62
2018-08-04T04:17:54.419Z,14.75
2018-08-04T04:20:22.645Z,14.38
2018-08-04T04:22:51.290Z,14.70
2018-08-04T04:25:19.494Z,14.43
2018-08-04T04:27:47.714Z,14.20
2018-08-04T04:30:15.998Z,14.65
2018-08-04T04:32:44.875Z,14.53
2018-08-04T04:35:13.059Z,13.68
2018-08-04T04:37:41.283Z,15.05
2018-08-04T04:40:10.142Z,14.55
2018-08-04T04:42:38.366Z,13.90
2018-08-04T04:45:06.595Z,13.38
2018-08-04T04:47:34.840Z,14.00
2018-08-04T04:50:03.064Z,13.40
2018-08-04T04:52:31.693Z,13.90
2018-08-04T04:54:59.891Z,14.55
2018-08-04T04:57:28.081Z,14.87
2018-08-04T04:59:56.450Z,14.15
2018-08-04T05:02:24.681Z,14.80
2018-08-04T05:04:52.956Z,13.80
2018-08-04T05:07:21.360Z,14.70
2018-08-04T05:09:49.550Z,14.25
2018-08-04T05:12:17.747Z,14.73
2018-08-04T05:14:46.687Z,14.20
2018-08-04T05:17:15.334Z,14.38
2018-08-04T05:19:43.576Z,14.60
2018-08-04T05:22:11.769Z,13.95
2018-08-04T05:24:40.218Z,15.15
2018-08-04T05:27:08.818Z,15.55
2018-08-04T05:29:37.022Z,14.10
2018-08-04T05:32:05.735Z,14.35
2018-08-04T05:34:34.270Z,14.98
2018-08-04T05:37:02.650Z,14.53
2018-08-04T05:39:30.925Z,14.03
2018-08-04T05:41:59.106Z,13.80
2018-08-04T05:44:27.555Z,13.70
2018-08-04T05:46:55.766Z,14.65
2018-08-04T05:49:24.032Z,14.98
2018-08-04T05:51:52.249Z,14.75
2018-08-04T05:54:20.627Z,14.73
2018-08-04T05:56:48.855Z,15.13
2018-08-04T05:59:17.057Z,14.03
2018-08-04T06:01:45.501Z,14.35
2018-08-04T06:04:13.683Z,14.43
2018-08-04T06:06:46.515Z,14.30
2018-08-04T06:09:15.128Z,13.45
2018-08-04T06:11:43.726Z,14.50
2018-08-04T06:14:12.394Z,13.90
2018-08-04T06:16:40.857Z,14.15
2018-08-04T06:19:09.070Z,15.10
2018-08-04T06:21:37.459Z,14.90
2018-08-04T06:24:05.710Z,14.55
2018-08-04T06:26:33.919Z,14.53
2018-08-04T06:29:02.142Z,14.18
2018-08-04T06:31:30.422Z,14.40
2018-08-04T06:33:58.993Z,14.80
2018-08-04T06:36:27.969Z,14.40
2018-08-04T06:38:56.618Z,13.83
2018-08-04T06:41:24.820Z,15.90
2018-08-04T06:43:53.048Z,14.15
2018-08-04T06:46:21.300Z,14.70
2018-08-04T06:48:49.518Z,14.80
2018-08-04T06:51:17.770Z,15.20
2018-08-04T06:53:46.902Z,15.50
2018-08-04T06:56:17.130Z,15.30
2018-08-04T06:58:47.803Z,16.95
2018-08-04T07:01:16.031Z,15.32
2018-08-04T07:03:44.280Z,15.18
2018-08-04T07:06:12.906Z,16.05
2018-08-04T07:08:41.135Z,14.33
2018-08-04T07:13:44.006Z,15.20
2018-08-04T07:16:12.396Z,15.95
2018-08-04T07:18:40.587Z,14.95
2018-08-04T07:21:08.791Z,14.13
2018-08-04T07:23:37.019Z,15.50
2018-08-04T07:26:05.256Z,15.15
2018-08-04T07:28:33.936Z,15.60
2018-08-04T07:31:02.133Z,14.13
2018-08-04T07:33:30.900Z,15.72
2018-08-04T07:35:59.110Z,13.15
2018-08-04T07:38:27.340Z,13.83
2018-08-04T07:40:55.580Z,12.80
2018-08-04T07:43:23.791Z,16.20
2018-08-04T07:45:52.066Z,15.25
2018-08-04T07:48:20.293Z,12.00
2018-08-04T07:50:48.520Z,13.30
2018-08-04T07:53:17.323Z,13.90
2018-08-04T07:55:45.587Z,12.15
2018-08-04T07:58:14.181Z,12.82
2018-08-04T08:00:42.438Z,13.43
2018-08-04T08:03:10.674Z,12.88
2018-08-04T08:05:38.898Z,12.93
2018-08-04T08:08:12.557Z,12.63
2018-08-04T08:10:40.861Z,12.78
2018-08-04T08:13:09.226Z,11.35
2018-08-04T08:15:38.050Z,13.05
2018-08-04T08:18:06.294Z,11.88
2018-08-04T08:20:34.496Z,12.93
2018-08-04T08:23:02.736Z,10.63
2018-08-04T08:25:30.930Z,12.78
2018-08-04T08:27:59.211Z,10.68
2018-08-04T08:30:27.975Z,10.65
2018-08-04T08:32:56.747Z,10.35
2018-08-04T08:35:24.965Z,12.63
2018-08-04T08:37:53.800Z,11.75
2018-08-04T08:40:22.680Z,11.38
2018-08-04T08:42:50.846Z,10.95
2018-08-04T08:45:19.411Z,10.53
2018-08-04T08:47:47.608Z,10.30
2018-08-04T08:50:15.847Z,9.50
2018-08-04T08:52:44.519Z,8.98
2018-08-04T08:55:12.710Z,8.98
2018-08-04T08:57:40.909Z,9.78
2018-08-04T09:00:10.190Z,8.75
2018-08-04T09:02:38.475Z,9.48
2018-08-04T09:05:07.827Z,7.10
2018-08-04T09:07:36.446Z,7.40
2018-08-04T09:10:07.187Z,7.00
2018-08-04T09:12:35.392Z,6.95
2018-08-04T09:15:10.540Z,7.10
2018-08-04T09:17:38.758Z,6.60
2018-08-04T09:20:07.831Z,7.70
2018-08-04T09:22:36.032Z,6.17
2018-08-04T09:25:05.230Z,7.03
2018-08-04T09:27:33.622Z,6.40
2018-08-04T09:30:02.035Z,6.30
2018-08-04T09:32:38.874Z,6.75
2018-08-04T09:35:07.676Z,6.75
2018-08-04T09:37:35.898Z,5.95
2018-08-04T09:40:04.824Z,6.37
2018-08-04T09:42:33.003Z,5.42
2018-08-04T09:45:01.219Z,4.80
2018-08-04T09:47:29.439Z,5.72
2018-08-04T09:49:57.642Z,5.70
2018-08-04T09:52:26.280Z,5.30
2018-08-04T09:54:54.482Z,5.20
2018-08-04T09:57:22.766Z,4.70
2018-08-04T09:59:51.173Z,5.17
2018-08-04T10:02:26.507Z,4.80
2018-08-04T10:04:56.109Z,4.50
2018-08-04T10:07:24.303Z,5.10
2018-08-04T10:09:52.579Z,4.92
2018-08-04T10:12:20.832Z,4.75
2018-08-04T10:14:49.335Z,4.90
2018-08-04T10:17:17.971Z,5.17
2018-08-04T10:19:46.172Z,4.97
2018-08-04T10:22:14.422Z,4.30
2018-08-04T10:24:42.615Z,5.08
2018-08-04T10:27:10.812Z,4.05
2018-08-04T10:29:39.850Z,4.03
2018-08-04T10:32:08.535Z,4.50
2018-08-04T10:34:37.280Z,4.35
2018-08-04T10:37:05.500Z,3.77
2018-08-04T10:39:33.731Z,3.92
2018-08-04T10:42:01.962Z,3.50
2018-08-04T10:44:30.162Z,3.83
2018-08-04T10:46:58.686Z,3.75
2018-08-04T10:49:26.930Z,3.87
2018-08-04T10:51:55.850Z,5.12
2018-08-04T10:54:26.051Z,5.65
2018-08-04T10:56:54.724Z,6.12
2018-08-04T10:59:23.267Z,6.87
2018-08-04T11:01:51.750Z,7.15
2018-08-04T11:04:20.559Z,7.40
2018-08-04T11:06:48.840Z,7.67
2018-08-04T11:09:17.059Z,12.00
2018-08-04T11:11:45.296Z,8.78
2018-08-04T11:14:14.108Z,10.38
2018-08-04T11:16:42.297Z,7.35
2018-08-04T11:19:10.862Z,8.28
2018-08-04T11:21:39.115Z,11.70
2018-08-04T11:24:07.374Z,9.08
2018-08-04T11:26:35.560Z,6.50
2018-08-04T11:29:04.514Z,5.87
2018-08-04T11:31:32.725Z,5.40
2018-08-04T11:34:00.921Z,5.42
2018-08-04T11:36:29.120Z,5.28
2018-08-04T11:38:57.334Z,5.42
2018-08-04T11:41:25.626Z,5.05
2018-08-04T11:43:53.851Z,7.90
2018-08-04T11:46:22.057Z,5.97
2018-08-04T11:48:50.295Z,5.92
2018-08-04T11:51:18.562Z,7.20
2018-08-04T11:53:46.834Z,7.28
2018-08-04T11:56:15.047Z,7.45
2018-08-04T11:58:43.707Z,8.00
2018-08-04T12:01:11.927Z,8.25
2018-08-04T12:03:46.794Z,8.63
2018-08-04T12:06:15.034Z,9.45
2018-08-04T12:08:43.258Z,8.95
2018-08-04T12:11:11.564Z,9.70
2018-08-04T12:13:40.187Z,9.55
2018-08-04T12:16:08.423Z,10.48
2018-08-04T12:18:36.719Z,9.85
2018-08-04T12:21:05.184Z,10.20
2018-08-04T12:23:33.438Z,10.75
2018-08-04T12:26:06.876Z,10.78
2018-08-04T12:28:34.882Z,10.30
2018-08-04T12:31:03.106Z,10.03
2018-08-04T12:33:31.349Z,9.08
2018-08-04T12:35:59.606Z,9.30
2018-08-04T12:38:27.707Z,10.00
2018-08-04T12:40:55.948Z,9.98
2018-08-04T12:43:23.931Z,9.88
2018-08-04T12:45:51.897Z,9.70
2018-08-04T12:48:20.094Z,10.60
2018-08-04T12:50:48.877Z,10.53
2018-08-04T12:53:27.425Z,10.00
2018-08-04T12:55:56.024Z,9.83
2018-08-04T12:58:24.911Z,9.90
2018-08-04T13:00:53.967Z,10.40
2018-08-04T13:03:22.211Z,10.13
2018-08-04T13:05:51.226Z,9.98
2018-08-04T13:08:19.522Z,9.38
2018-08-04T13:10:49.147Z,9.63
2018-08-04T13:13:17.934Z,9.25
2018-08-04T13:15:46.182Z,9.78
2018-08-04T13:18:14.762Z,10.63
2018-08-04T13:20:43.302Z,9.40
2018-08-04T13:23:11.550Z,9.28
2018-08-04T13:25:39.814Z,9.35
2018-08-04T13:28:08.103Z,9.65
2018-08-04T13:30:36.485Z,8.58
2018-08-04T13:33:04.781Z,8.90
2018-08-04T13:35:33.084Z,8.58
2018-08-04T13:38:01.309Z,9.40
2018-08-04T13:40:29.611Z,8.55
2018-08-04T13:42:57.951Z,8.68
2018-08-04T13:45:26.247Z,9.00
2018-08-04T13:47:54.551Z,9.60
2018-08-04T13:50:22.913Z,9.33
2018-08-04T13:52:52.049Z,9.38
2018-08-04T13:55:20.573Z,9.20
2018-08-04T13:57:49.530Z,8.00
2018-08-04T14:00:18.129Z,8.05
2018-08-04T14:02:46.375Z,8.48
2018-08-04T14:05:14.988Z,8.78
2018-08-04T14:07:43.766Z,9.13
2018-08-04T14:10:12.162Z,9.40
2018-08-04T14:12:40.882Z,9.68
2018-08-04T14:15:10.014Z,9.13
2018-08-04T14:17:39.569Z,9.70
2018-08-04T14:20:08.119Z,9.65
2018-08-04T14:22:36.437Z,10.03
2018-08-04T14:25:04.787Z,9.53
2018-08-04T14:27:33.494Z,9.08
2018-08-04T14:30:01.809Z,9.53
2018-08-04T14:32:30.052Z,9.00
2018-08-04T14:34:58.344Z,9.08
2018-08-04T14:37:26.571Z,8.85
2018-08-04T14:39:54.859Z,9.53
2018-08-04T14:42:23.151Z,8.63
2018-08-04T14:44:51.471Z,8.85
2018-08-04T14:47:19.739Z,8.23
2018-08-04T14:49:48.038Z,8.90
2018-08-04T14:52:23.638Z,8.35
2018-08-04T14:54:52.352Z,8.30
2018-08-04T14:57:20.959Z,8.68
2018-08-04T14:59:49.478Z,8.45
2018-08-04T15:02:17.817Z,8.48
2018-08-04T15:04:46.370Z,7.80
2018-08-04T15:07:14.588Z,8.55
2018-08-04T15:09:42.804Z,8.88
2018-08-04T15:14:47.486Z,7.62
2018-08-04T15:17:15.699Z,8.80
2018-08-04T15:19:44.374Z,7.95
2018-08-04T15:22:12.611Z,8.63
2018-08-04T15:24:40.605Z,8.73
2018-08-04T15:27:08.835Z,8.90
2018-08-04T15:29:37.063Z,8.40
2018-08-04T15:32:05.366Z,8.60
2018-08-04T15:34:33.711Z,8.08
2018-08-04T15:37:01.728Z,9.20
2018-08-04T15:39:29.988Z,8.35
2018-08-04T15:41:58.374Z,8.90
2018-08-04T15:44:26.657Z,9.23
2018-08-04T15:46:54.860Z,8.58
2018-08-04T15:49:23.104Z,8.65
2018-08-04T15:51:51.341Z,8.13
2018-08-04T15:54:19.799Z,7.80
2018-08-04T15:56:48.336Z,8.18
2018-08-04T15:59:16.456Z,7.60
2018-08-04T16:01:44.683Z,7.95
2018-08-04T16:04:13.229Z,7.47
2018-08-04T16:06:41.697Z,8.00
2018-08-04T16:09:11.023Z,7.80
2018-08-04T16:11:40.202Z,7.22
2018-08-04T16:14:09.304Z,7.20
2018-08-04T16:16:38.195Z,7.03
2018-08-04T16:19:07.021Z,7.58
2018-08-04T16:21:35.345Z,7.65
2018-08-04T16:24:03.325Z,7.37
2018-08-04T16:26:31.339Z,7.17
2018-08-04T16:28:59.624Z,6.97
2018-08-04T16:31:27.905Z,6.58
2018-08-04T16:33:56.153Z,6.58
2018-08-04T16:36:24.383Z,7.20
2018-08-04T16:38:52.669Z,6.33
2018-08-04T16:41:20.953Z,6.75
2018-08-04T16:43:49.610Z,6.35
2018-08-04T16:46:17.822Z,7.10
2018-08-04T16:48:46.260Z,7.40
2018-08-04T16:51:14.518Z,6.92
2018-08-04T16:53:42.836Z,7.30
2018-08-04T16:56:11.042Z,7.15
2018-08-04T16:58:39.657Z,7.50
2018-08-04T17:01:07.914Z,7.15
2018-08-04T17:03:36.772Z,7.28
2018-08-04T17:06:05.495Z,7.22
2018-08-04T17:08:33.755Z,7.33
2018-08-04T17:11:01.951Z,7.58
2018-08-04T17:13:30.587Z,7.95
2018-08-04T17:15:58.518Z,7.35
2018-08-04T17:18:27.175Z,7.60
2018-08-04T17:20:55.346Z,7.28
2018-08-04T17:23:23.590Z,7.20
2018-08-04T17:25:51.586Z,7.67
2018-08-04T17:28:19.806Z,7.15
2018-08-04T17:30:48.087Z,6.75
2018-08-04T17:33:16.596Z,6.78
2018-08-04T17:35:44.809Z,6.85
2018-08-04T17:38:12.771Z,6.67
2018-08-04T17:40:41.094Z,9.03
2018-08-04T17:43:09.322Z,8.10
2018-08-04T17:45:37.955Z,7.85
2018-08-04T17:48:06.383Z,8.15
2018-08-04T17:50:35.048Z,7.70
2018-08-04T17:53:03.915Z,7.53
2018-08-04T17:55:32.384Z,7.15
2018-08-04T17:58:00.917Z,7.30
2018-08-04T18:00:29.110Z,7.62
2018-08-04T18:02:57.367Z,7.60
2018-08-04T18:05:25.733Z,8.10
2018-08-04T18:07:53.967Z,7.90
2018-08-04T18:10:22.165Z,8.20
2018-08-04T18:12:57.522Z,8.18
2018-08-04T18:15:25.493Z,8.63
2018-08-04T18:17:53.871Z,8.20
2018-08-04T18:20:21.866Z,8.63
2018-08-04T18:22:49.817Z,7.75
2018-08-04T18:25:17.806Z,8.08
2018-08-04T18:27:46.009Z,8.68
2018-08-04T18:30:14.314Z,9.30
2018-08-04T18:32:42.649Z,8.98
2018-08-04T18:35:11.114Z,8.63
2018-08-04T18:37:39.402Z,9.10
2018-08-04T18:40:07.343Z,9.20
2018-08-04T18:42:35.721Z,9.43
2018-08-04T18:45:06.118Z,8.75
2018-08-04T18:47:34.447Z,8.70
2018-08-04T18:50:02.731Z,9.18
2018-08-04T18:52:31.294Z,9.45
2018-08-04T18:54:59.810Z,9.05
2018-08-04T18:57:28.194Z,9.33
2018-08-04T18:59:57.891Z,9.88
2018-08-04T19:02:26.094Z,9.68
2018-08-04T19:04:54.246Z,9.03
2018-08-04T19:07:22.448Z,9.80
2018-08-04T19:09:50.421Z,10.13
2018-08-04T19:12:18.396Z,9.80
2018-08-04T19:14:47.011Z,9.80
2018-08-04T19:17:14.982Z,9.05
2018-08-04T19:19:43.050Z,9.18
2018-08-04T19:22:11.011Z,9.85
2018-08-04T19:24:38.994Z,10.63
2018-08-04T19:27:07.619Z,9.95
2018-08-04T19:29:35.865Z,10.00
2018-08-04T19:32:03.818Z,9.80
2018-08-04T19:34:32.639Z,10.23
2018-08-04T19:37:00.875Z,10.63
2018-08-04T19:39:29.066Z,11.15
2018-08-04T19:41:57.273Z,9.83
2018-08-04T19:44:25.600Z,10.25
2018-08-04T19:46:53.854Z,11.73
2018-08-04T19:49:22.090Z,11.50
2018-08-04T19:51:50.279Z,11.57
2018-08-04T19:54:18.742Z,11.40
2018-08-04T19:56:46.949Z,11.33
2018-08-04T19:59:15.121Z,11.63
2018-08-04T20:01:43.074Z,12.35
2018-08-04T20:04:11.609Z,11.05
2018-08-04T20:06:39.805Z,12.50
2018-08-04T20:09:09.436Z,11.73
2018-08-04T20:11:37.822Z,11.95
2018-08-04T20:14:06.251Z,12.10
2018-08-04T20:16:34.234Z,12.90
2018-08-04T20:19:02.504Z,12.37
2018-08-04T20:21:30.638Z,12.10
2018-08-04T20:23:59.082Z,13.20
2018-08-04T20:26:27.473Z,12.35
2018-08-04T20:28:55.667Z,12.05
2018-08-04T20:31:23.866Z,11.93
2018-08-04T20:33:52.523Z,12.53
2018-08-04T20:36:20.720Z,11.53
2018-08-04T20:38:48.944Z,11.63
2018-08-04T20:41:17.266Z,12.05
2018-08-04T20:43:45.884Z,12.53
2018-08-04T20:46:14.071Z,13.22
2018-08-04T20:48:42.270Z,12.37
2018-08-04T20:51:10.474Z,12.93
2018-08-04T20:53:38.659Z,13.22
2018-08-04T20:56:06.628Z,13.22
2018-08-04T20:58:35.126Z,13.22
2018-08-04T21:01:21.058Z,12.50
2018-08-04T21:03:49.663Z,13.72
2018-08-04T21:06:17.598Z,13.30
2018-08-04T21:08:45.795Z,12.58
2018-08-04T21:11:14.002Z,12.33
2018-08-04T21:13:42.728Z,12.65
2018-08-04T21:16:10.922Z,12.90
2018-08-04T21:18:43.983Z,13.78
2018-08-04T21:21:12.187Z,12.60
2018-08-04T21:23:40.546Z,13.50
2018-08-04T21:26:08.770Z,12.70
2018-08-04T21:28:37.006Z,12.82
2018-08-04T21:31:05.380Z,13.18
2018-08-04T21:33:33.326Z,12.78
2018-08-04T21:36:01.699Z,13.58
2018-08-04T21:38:29.934Z,13.75
2018-08-04T21:40:58.318Z,14.70
2018-08-04T21:43:31.180Z,14.20
2018-08-04T21:45:59.368Z,13.80
2018-08-04T21:48:28.566Z,14.15
2018-08-04T21:50:56.837Z,15.10
2018-08-04T21:53:25.871Z,14.43
2018-08-04T21:55:54.102Z,14.13
2018-08-04T21:58:22.560Z,12.95
2018-08-04T22:00:59.934Z,14.60
2018-08-04T22:03:28.162Z,14.80
2018-08-04T22:05:56.880Z,15.32
2018-08-04T22:08:36.374Z,14.05
2018-08-04T22:11:05.383Z,14.35
2018-08-04T22:13:34.004Z,14.00
2018-08-04T22:16:02.232Z,14.80
2018-08-04T22:18:30.677Z,14.55
2018-08-04T22:20:58.951Z,14.63
2018-08-04T22:23:27.182Z,14.05
2018-08-04T22:25:55.410Z,13.45
2018-08-04T22:28:23.617Z,14.93
2018-08-04T22:30:51.910Z,14.55
2018-08-04T22:33:20.176Z,14.07
2018-08-04T22:35:48.362Z,13.65
2018-08-04T22:38:16.581Z,14.25
2018-08-04T22:40:44.964Z,14.13
2018-08-04T22:43:13.257Z,14.05
2018-08-04T22:46:13.722Z,13.30
2018-08-04T22:48:43.298Z,13.53
2018-08-04T22:51:11.552Z,14.60
2018-08-04T22:53:40.167Z,15.08
2018-08-04T22:56:08.383Z,14.30
2018-08-04T22:58:37.211Z,14.55
2018-08-04T23:01:11.415Z,14.68
2018-08-04T23:06:15.037Z,15.32
2018-08-04T23:08:43.227Z,14.35
2018-08-04T23:11:11.443Z,14.90
2018-08-04T23:13:40.134Z,15.35
2018-08-04T23:16:08.342Z,15.95
2018-08-04T23:18:37.407Z,14.53
2018-08-04T23:21:05.856Z,14.68
2018-08-04T23:23:34.059Z,15.38
2018-08-04T23:26:02.410Z,14.25
2018-08-04T23:28:30.625Z,14.23
2018-08-04T23:30:58.879Z,14.30
2018-08-04T23:33:27.078Z,14.83
2018-08-04T23:35:55.297Z,14.87
2018-08-04T23:38:23.549Z,14.53
2018-08-04T23:40:51.828Z,14.50
2018-08-04T23:43:20.103Z,14.65
2018-08-04T23:45:48.558Z,14.05
2018-08-04T23:48:17.386Z,14.63
2018-08-04T23:50:45.591Z,15.13
2018-08-04T23:53:14.334Z,14.15
2018-08-04T23:55:43.018Z,14.43
2018-08-04T23:58:11.554Z,15.50
